sensor_id;sensor_type;location;lat;lon;timestamp;P1;durP1;ratioP1;P2;durP2;ratioP2
40867;SDS011;26586;50.708;22.412;2022-09-24T00:00:44;5.53;;;3.30;;
40867;SDS011;26586;50.708;22.412;2022-09-24T00:03:26;7.13;;;3.50;;
40867;SDS011;26586;50.708;22.412;2022-09-24T00:05:52;7.20;;;2.97;;
40867;SDS011;26586;50.708;22.412;2022-09-24T00:08:19;5.78;;;3.28;;
40867;SDS011;26586;50.708;22.412;2022-09-24T00:10:45;7.23;;;3.03;;
40867;SDS011;26586;50.708;22.412;2022-09-24T00:13:14;6.75;;;3.83;;
40867;SDS011;26586;50.708;22.412;2022-09-24T00:15:46;8.20;;;3.90;;
40867;SDS011;26586;50.708;22.412;2022-09-24T00:18:14;9.07;;;5.07;;
40867;SDS011;26586;50.708;22.412;2022-09-24T00:20:41;6.18;;;3.92;;
40867;SDS011;26586;50.708;22.412;2022-09-24T00:25:39;7.40;;;4.07;;
40867;SDS011;26586;50.708;22.412;2022-09-24T00:28:28;8.55;;;4.50;;
40867;SDS011;26586;50.708;22.412;2022-09-24T00:30:55;9.70;;;5.05;;
40867;SDS011;26586;50.708;22.412;2022-09-24T00:33:23;9.70;;;6.43;;
40867;SDS011;26586;50.708;22.412;2022-09-24T00:35:51;11.70;;;6.20;;
40867;SDS011;26586;50.708;22.412;2022-09-24T00:38:17;10.05;;;6.78;;
40867;SDS011;26586;50.708;22.412;2022-09-24T00:40:43;11.65;;;6.65;;
40867;SDS011;26586;50.708;22.412;2022-09-24T00:45:51;9.63;;;6.22;;
40867;SDS011;26586;50.708;22.412;2022-09-24T00:48:42;9.95;;;5.25;;
40867;SDS011;26586;50.708;22.412;2022-09-24T00:51:10;8.98;;;5.03;;
40867;SDS011;26586;50.708;22.412;2022-09-24T00:53:40;8.10;;;5.00;;
40867;SDS011;26586;50.708;22.412;2022-09-24T00:56:09;12.48;;;5.75;;
40867;SDS011;26586;50.708;22.412;2022-09-24T00:58:39;11.98;;;6.35;;
40867;SDS011;26586;50.708;22.412;2022-09-24T01:01:11;12.60;;;8.23;;
40867;SDS011;26586;50.708;22.412;2022-09-24T01:03:37;23.38;;;12.32;;
40867;SDS011;26586;50.708;22.412;2022-09-24T01:06:07;21.67;;;13.15;;
40867;SDS011;26586;50.708;22.412;2022-09-24T01:08:34;20.38;;;11.13;;
40867;SDS011;26586;50.708;22.412;2022-09-24T01:16:38;14.70;;;8.68;;
40867;SDS011;26586;50.708;22.412;2022-09-24T01:19:38;16.23;;;6.30;;
40867;SDS011;26586;50.708;22.412;2022-09-24T01:30:44;11.77;;;4.22;;
40867;SDS011;26586;50.708;22.412;2022-09-24T01:33:15;7.85;;;4.57;;
40867;SDS011;26586;50.708;22.412;2022-09-24T01:35:52;7.75;;;4.32;;
40867;SDS011;26586;50.708;22.412;2022-09-24T01:38:22;6.63;;;4.55;;
40867;SDS011;26586;50.708;22.412;2022-09-24T01:40:53;10.20;;;4.38;;
40867;SDS011;26586;50.708;22.412;2022-09-24T01:43:24;11.13;;;4.78;;
40867;SDS011;26586;50.708;22.412;2022-09-24T01:45:53;10.68;;;4.90;;
40867;SDS011;26586;50.708;22.412;2022-09-24T01:48:25;10.32;;;4.70;;
40867;SDS011;26586;50.708;22.412;2022-09-24T01:54:21;10.18;;;5.18;;
40867;SDS011;26586;50.708;22.412;2022-09-24T01:59:25;10.07;;;4.57;;
40867;SDS011;26586;50.708;22.412;2022-09-24T02:02:08;8.02;;;5.03;;
40867;SDS011;26586;50.708;22.412;2022-09-24T02:04:40;9.88;;;5.05;;
40867;SDS011;26586;50.708;22.412;2022-09-24T02:07:11;11.05;;;5.25;;
40867;SDS011;26586;50.708;22.412;2022-09-24T02:09:43;10.20;;;5.00;;
40867;SDS011;26586;50.708;22.412;2022-09-24T02:14:43;10.80;;;6.60;;
40867;SDS011;26586;50.708;22.412;2022-09-24T02:17:14;12.18;;;5.45;;
40867;SDS011;26586;50.708;22.412;2022-09-24T02:19:41;10.13;;;5.43;;
40867;SDS011;26586;50.708;22.412;2022-09-24T02:22:08;8.25;;;5.10;;
40867;SDS011;26586;50.708;22.412;2022-09-24T02:24:44;7.50;;;3.70;;
40867;SDS011;26586;50.708;22.412;2022-09-24T02:27:16;8.13;;;4.28;;
40867;SDS011;26586;50.708;22.412;2022-09-24T02:29:44;8.75;;;3.63;;
40867;SDS011;26586;50.708;22.412;2022-09-24T02:32:12;8.80;;;3.95;;
40867;SDS011;26586;50.708;22.412;2022-09-24T02:34:41;7.55;;;3.92;;
40867;SDS011;26586;50.708;22.412;2022-09-24T02:37:12;5.55;;;3.20;;
40867;SDS011;26586;50.708;22.412;2022-09-24T02:39:40;8.10;;;3.45;;
40867;SDS011;26586;50.708;22.412;2022-09-24T02:42:08;6.75;;;3.53;;
40867;SDS011;26586;50.708;22.412;2022-09-24T02:44:35;8.25;;;4.35;;
40867;SDS011;26586;50.708;22.412;2022-09-24T02:47:02;6.18;;;3.47;;
40867;SDS011;26586;50.708;22.412;2022-09-24T02:49:28;9.82;;;4.57;;
40867;SDS011;26586;50.708;22.412;2022-09-24T02:51:54;7.53;;;4.50;;
40867;SDS011;26586;50.708;22.412;2022-09-24T02:54:21;10.00;;;4.32;;
40867;SDS011;26586;50.708;22.412;2022-09-24T02:56:49;6.75;;;3.83;;
40867;SDS011;26586;50.708;22.412;2022-09-24T02:59:16;7.47;;;4.45;;
40867;SDS011;26586;50.708;22.412;2022-09-24T03:04:09;4.57;;;3.20;;
40867;SDS011;26586;50.708;22.412;2022-09-24T03:06:36;6.97;;;3.67;;
40867;SDS011;26586;50.708;22.412;2022-09-24T03:09:03;8.30;;;3.38;;
40867;SDS011;26586;50.708;22.412;2022-09-24T03:11:30;6.15;;;3.50;;
40867;SDS011;26586;50.708;22.412;2022-09-24T03:13:58;8.70;;;4.43;;
40867;SDS011;26586;50.708;22.412;2022-09-24T03:16:24;11.48;;;6.40;;
40867;SDS011;26586;50.708;22.412;2022-09-24T03:18:50;7.95;;;5.25;;
40867;SDS011;26586;50.708;22.412;2022-09-24T03:21:18;10.18;;;4.95;;
40867;SDS011;26586;50.708;22.412;2022-09-24T03:23:45;7.47;;;4.57;;
40867;SDS011;26586;50.708;22.412;2022-09-24T03:26:11;7.63;;;4.60;;
40867;SDS011;26586;50.708;22.412;2022-09-24T03:28:38;7.30;;;4.30;;
40867;SDS011;26586;50.708;22.412;2022-09-24T03:31:05;7.47;;;4.40;;
40867;SDS011;26586;50.708;22.412;2022-09-24T03:33:33;7.60;;;4.30;;
40867;SDS011;26586;50.708;22.412;2022-09-24T03:36:03;5.97;;;4.05;;
40867;SDS011;26586;50.708;22.412;2022-09-24T03:38:34;8.43;;;4.70;;
40867;SDS011;26586;50.708;22.412;2022-09-24T03:41:01;9.13;;;4.20;;
40867;SDS011;26586;50.708;22.412;2022-09-24T03:43:29;6.25;;;3.70;;
40867;SDS011;26586;50.708;22.412;2022-09-24T03:45:55;6.63;;;4.07;;
40867;SDS011;26586;50.708;22.412;2022-09-24T03:48:22;7.35;;;4.07;;
40867;SDS011;26586;50.708;22.412;2022-09-24T03:50:50;8.63;;;4.82;;
40867;SDS011;26586;50.708;22.412;2022-09-24T03:53:16;7.53;;;4.20;;
40867;SDS011;26586;50.708;22.412;2022-09-24T03:55:53;6.97;;;4.50;;
40867;SDS011;26586;50.708;22.412;2022-09-24T03:58:21;10.32;;;5.93;;
40867;SDS011;26586;50.708;22.412;2022-09-24T04:00:47;9.15;;;5.18;;
40867;SDS011;26586;50.708;22.412;2022-09-24T04:03:15;10.73;;;5.18;;
40867;SDS011;26586;50.708;22.412;2022-09-24T04:05:42;10.27;;;6.20;;
40867;SDS011;26586;50.708;22.412;2022-09-24T04:08:08;11.85;;;6.25;;
40867;SDS011;26586;50.708;22.412;2022-09-24T04:10:34;13.13;;;5.88;;
40867;SDS011;26586;50.708;22.412;2022-09-24T04:13:00;14.47;;;6.00;;
40867;SDS011;26586;50.708;22.412;2022-09-24T04:15:27;10.38;;;5.88;;
40867;SDS011;26586;50.708;22.412;2022-09-24T04:17:54;9.02;;;5.57;;
40867;SDS011;26586;50.708;22.412;2022-09-24T04:20:25;11.98;;;6.40;;
40867;SDS011;26586;50.708;22.412;2022-09-24T04:22:53;11.18;;;5.53;;
40867;SDS011;26586;50.708;22.412;2022-09-24T04:25:20;11.57;;;6.50;;
40867;SDS011;26586;50.708;22.412;2022-09-24T04:27:51;10.73;;;6.13;;
40867;SDS011;26586;50.708;22.412;2022-09-24T04:30:19;11.02;;;5.90;;
40867;SDS011;26586;50.708;22.412;2022-09-24T04:32:45;9.52;;;5.60;;
40867;SDS011;26586;50.708;22.412;2022-09-24T04:35:12;10.40;;;4.77;;
40867;SDS011;26586;50.708;22.412;2022-09-24T04:37:38;8.77;;;4.90;;
40867;SDS011;26586;50.708;22.412;2022-09-24T04:40:04;13.45;;;6.20;;
40867;SDS011;26586;50.708;22.412;2022-09-24T04:42:34;13.00;;;6.25;;
40867;SDS011;26586;50.708;22.412;2022-09-24T04:45:01;15.98;;;7.72;;
40867;SDS011;26586;50.708;22.412;2022-09-24T04:47:27;12.43;;;7.38;;
40867;SDS011;26586;50.708;22.412;2022-09-24T04:49:53;11.47;;;7.17;;
40867;SDS011;26586;50.708;22.412;2022-09-24T04:52:19;12.52;;;6.43;;
40867;SDS011;26586;50.708;22.412;2022-09-24T04:54:49;8.65;;;5.43;;
40867;SDS011;26586;50.708;22.412;2022-09-24T04:57:15;10.13;;;6.23;;
40867;SDS011;26586;50.708;22.412;2022-09-24T04:59:42;6.20;;;4.25;;
40867;SDS011;26586;50.708;22.412;2022-09-24T05:02:08;8.88;;;5.30;;
40867;SDS011;26586;50.708;22.412;2022-09-24T05:04:35;8.88;;;5.78;;
40867;SDS011;26586;50.708;22.412;2022-09-24T05:07:02;9.50;;;5.43;;
40867;SDS011;26586;50.708;22.412;2022-09-24T05:09:29;10.02;;;6.10;;
40867;SDS011;26586;50.708;22.412;2022-09-24T05:12:00;10.10;;;7.35;;
40867;SDS011;26586;50.708;22.412;2022-09-24T05:14:26;11.43;;;8.38;;
40867;SDS011;26586;50.708;22.412;2022-09-24T05:16:53;8.90;;;5.45;;
40867;SDS011;26586;50.708;22.412;2022-09-24T05:19:19;9.23;;;6.35;;
40867;SDS011;26586;50.708;22.412;2022-09-24T05:21:45;13.38;;;7.75;;
40867;SDS011;26586;50.708;22.412;2022-09-24T05:24:11;20.77;;;11.30;;
40867;SDS011;26586;50.708;22.412;2022-09-24T05:26:38;23.30;;;12.57;;
40867;SDS011;26586;50.708;22.412;2022-09-24T05:29:23;15.98;;;8.80;;
40867;SDS011;26586;50.708;22.412;2022-09-24T05:31:49;13.32;;;8.25;;
40867;SDS011;26586;50.708;22.412;2022-09-24T05:34:15;13.52;;;6.97;;
40867;SDS011;26586;50.708;22.412;2022-09-24T05:36:43;13.38;;;8.73;;
40867;SDS011;26586;50.708;22.412;2022-09-24T05:39:10;15.40;;;11.15;;
40867;SDS011;26586;50.708;22.412;2022-09-24T05:41:38;10.80;;;7.85;;
40867;SDS011;26586;50.708;22.412;2022-09-24T05:46:31;10.93;;;7.27;;
40867;SDS011;26586;50.708;22.412;2022-09-24T05:48:57;14.33;;;8.40;;
40867;SDS011;26586;50.708;22.412;2022-09-24T05:51:24;11.38;;;7.15;;
40867;SDS011;26586;50.708;22.412;2022-09-24T05:53:50;9.35;;;6.35;;
40867;SDS011;26586;50.708;22.412;2022-09-24T05:56:17;10.85;;;6.32;;
40867;SDS011;26586;50.708;22.412;2022-09-24T05:58:43;10.85;;;6.43;;
40867;SDS011;26586;50.708;22.412;2022-09-24T06:01:09;9.67;;;6.33;;
40867;SDS011;26586;50.708;22.412;2022-09-24T06:03:35;10.95;;;6.38;;
40867;SDS011;26586;50.708;22.412;2022-09-24T06:06:01;11.60;;;7.05;;
40867;SDS011;26586;50.708;22.412;2022-09-24T06:08:28;18.70;;;8.27;;
40867;SDS011;26586;50.708;22.412;2022-09-24T06:11:01;12.35;;;8.30;;
40867;SDS011;26586;50.708;22.412;2022-09-24T06:13:29;14.30;;;8.23;;
40867;SDS011;26586;50.708;22.412;2022-09-24T06:16:02;16.42;;;9.10;;
40867;SDS011;26586;50.708;22.412;2022-09-24T06:18:32;21.50;;;8.75;;
40867;SDS011;26586;50.708;22.412;2022-09-24T06:21:00;11.13;;;7.72;;
40867;SDS011;26586;50.708;22.412;2022-09-24T06:23:28;12.20;;;7.35;;
40867;SDS011;26586;50.708;22.412;2022-09-24T06:25:56;12.02;;;6.03;;
40867;SDS011;26586;50.708;22.412;2022-09-24T06:28:22;9.15;;;6.35;;
40867;SDS011;26586;50.708;22.412;2022-09-24T06:33:18;10.73;;;6.97;;
40867;SDS011;26586;50.708;22.412;2022-09-24T06:35:58;13.55;;;8.00;;
40867;SDS011;26586;50.708;22.412;2022-09-24T06:38:26;11.70;;;6.63;;
40867;SDS011;26586;50.708;22.412;2022-09-24T06:40:56;10.05;;;6.82;;
40867;SDS011;26586;50.708;22.412;2022-09-24T06:43:26;10.32;;;6.60;;
40867;SDS011;26586;50.708;22.412;2022-09-24T06:45:53;12.65;;;7.00;;
40867;SDS011;26586;50.708;22.412;2022-09-24T06:48:24;10.20;;;6.72;;
40867;SDS011;26586;50.708;22.412;2022-09-24T06:50:51;10.35;;;6.47;;
40867;SDS011;26586;50.708;22.412;2022-09-24T06:55:45;9.67;;;6.37;;
40867;SDS011;26586;50.708;22.412;2022-09-24T06:58:12;9.95;;;6.97;;
40867;SDS011;26586;50.708;22.412;2022-09-24T07:00:40;12.85;;;6.60;;
40867;SDS011;26586;50.708;22.412;2022-09-24T07:03:15;10.23;;;6.22;;
40867;SDS011;26586;50.708;22.412;2022-09-24T07:05:43;9.70;;;6.40;;
40867;SDS011;26586;50.708;22.412;2022-09-24T07:08:12;8.02;;;5.35;;
40867;SDS011;26586;50.708;22.412;2022-09-24T07:10:42;9.43;;;5.68;;
40867;SDS011;26586;50.708;22.412;2022-09-24T07:13:10;12.38;;;5.82;;
40867;SDS011;26586;50.708;22.412;2022-09-24T07:15:38;8.70;;;5.53;;
40867;SDS011;26586;50.708;22.412;2022-09-24T07:20:31;10.07;;;5.73;;
40867;SDS011;26586;50.708;22.412;2022-09-24T07:22:58;8.85;;;5.75;;
40867;SDS011;26586;50.708;22.412;2022-09-24T07:25:25;8.80;;;5.90;;
40867;SDS011;26586;50.708;22.412;2022-09-24T07:27:59;10.13;;;5.85;;
40867;SDS011;26586;50.708;22.412;2022-09-24T07:30:37;10.82;;;6.75;;
40867;SDS011;26586;50.708;22.412;2022-09-24T07:35:36;10.00;;;5.60;;
40867;SDS011;26586;50.708;22.412;2022-09-24T07:38:09;10.07;;;5.90;;
40867;SDS011;26586;50.708;22.412;2022-09-24T07:40:36;9.38;;;5.35;;
40867;SDS011;26586;50.708;22.412;2022-09-24T07:43:03;12.18;;;7.47;;
40867;SDS011;26586;50.708;22.412;2022-09-24T07:45:31;9.35;;;4.95;;
40867;SDS011;26586;50.708;22.412;2022-09-24T07:47:59;7.35;;;4.10;;
40867;SDS011;26586;50.708;22.412;2022-09-24T07:50:27;6.68;;;3.95;;
40867;SDS011;26586;50.708;22.412;2022-09-24T07:52:55;6.38;;;3.90;;
40867;SDS011;26586;50.708;22.412;2022-09-24T07:55:21;8.43;;;4.05;;
40867;SDS011;26586;50.708;22.412;2022-09-24T07:57:50;6.05;;;3.42;;
40867;SDS011;26586;50.708;22.412;2022-09-24T08:00:22;66.97;;;8.73;;
40867;SDS011;26586;50.708;22.412;2022-09-24T08:02:49;8.50;;;3.63;;
40867;SDS011;26586;50.708;22.412;2022-09-24T08:05:20;5.88;;;3.03;;
40867;SDS011;26586;50.708;22.412;2022-09-24T08:07:53;10.53;;;4.93;;
40867;SDS011;26586;50.708;22.412;2022-09-24T08:10:21;6.28;;;3.03;;
40867;SDS011;26586;50.708;22.412;2022-09-24T08:12:48;8.07;;;3.17;;
40867;SDS011;26586;50.708;22.412;2022-09-24T08:15:14;5.10;;;2.77;;
40867;SDS011;26586;50.708;22.412;2022-09-24T08:17:42;5.03;;;2.92;;
40867;SDS011;26586;50.708;22.412;2022-09-24T08:20:08;6.53;;;3.30;;
40867;SDS011;26586;50.708;22.412;2022-09-24T08:22:36;6.05;;;3.58;;
40867;SDS011;26586;50.708;22.412;2022-09-24T08:25:05;5.57;;;3.75;;
40867;SDS011;26586;50.708;22.412;2022-09-24T08:27:32;5.72;;;2.85;;
40867;SDS011;26586;50.708;22.412;2022-09-24T08:30:03;6.72;;;2.20;;
40867;SDS011;26586;50.708;22.412;2022-09-24T08:32:31;5.13;;;2.53;;
40867;SDS011;26586;50.708;22.412;2022-09-24T08:34:57;3.47;;;1.90;;
40867;SDS011;26586;50.708;22.412;2022-09-24T08:37:23;4.60;;;3.03;;
40867;SDS011;26586;50.708;22.412;2022-09-24T08:39:51;4.30;;;2.22;;
40867;SDS011;26586;50.708;22.412;2022-09-24T08:44:58;3.58;;;2.05;;
40867;SDS011;26586;50.708;22.412;2022-09-24T08:47:52;5.72;;;3.17;;
40867;SDS011;26586;50.708;22.412;2022-09-24T08:50:25;5.03;;;2.17;;
40867;SDS011;26586;50.708;22.412;2022-09-24T08:55:54;3.58;;;2.30;;
40867;SDS011;26586;50.708;22.412;2022-09-24T08:58:27;4.03;;;2.63;;
40867;SDS011;26586;50.708;22.412;2022-09-24T09:01:32;3.77;;;2.50;;
40867;SDS011;26586;50.708;22.412;2022-09-24T09:07:23;6.65;;;2.33;;
40867;SDS011;26586;50.708;22.412;2022-09-24T09:10:21;4.45;;;2.22;;
40867;SDS011;26586;50.708;22.412;2022-09-24T09:12:54;4.85;;;2.28;;
40867;SDS011;26586;50.708;22.412;2022-09-24T09:15:38;3.53;;;2.10;;
40867;SDS011;26586;50.708;22.412;2022-09-24T09:18:12;4.75;;;2.50;;
40867;SDS011;26586;50.708;22.412;2022-09-24T09:20:52;2.78;;;1.38;;
40867;SDS011;26586;50.708;22.412;2022-09-24T09:23:21;3.47;;;1.85;;
40867;SDS011;26586;50.708;22.412;2022-09-24T09:26:11;3.22;;;1.75;;
40867;SDS011;26586;50.708;22.412;2022-09-24T09:28:40;2.53;;;1.17;;
40867;SDS011;26586;50.708;22.412;2022-09-24T09:38:55;2.93;;;1.83;;
40867;SDS011;26586;50.708;22.412;2022-09-24T09:44:28;5.28;;;1.42;;
40867;SDS011;26586;50.708;22.412;2022-09-24T09:47:44;1.50;;;0.60;;
40867;SDS011;26586;50.708;22.412;2022-09-24T09:50:33;2.97;;;0.80;;
40867;SDS011;26586;50.708;22.412;2022-09-24T09:53:30;3.78;;;1.00;;
40867;SDS011;26586;50.708;22.412;2022-09-24T09:56:00;1.02;;;0.90;;
40867;SDS011;26586;50.708;22.412;2022-09-24T09:58:35;1.73;;;0.73;;
40867;SDS011;26586;50.708;22.412;2022-09-24T10:01:05;1.30;;;0.80;;
40867;SDS011;26586;50.708;22.412;2022-09-24T10:06:28;1.75;;;0.85;;
40867;SDS011;26586;50.708;22.412;2022-09-24T10:09:18;2.45;;;0.80;;
40867;SDS011;26586;50.708;22.412;2022-09-24T10:11:45;1.02;;;0.50;;
40867;SDS011;26586;50.708;22.412;2022-09-24T10:16:43;1.13;;;0.60;;
40867;SDS011;26586;50.708;22.412;2022-09-24T10:19:17;1.63;;;0.70;;
40867;SDS011;26586;50.708;22.412;2022-09-24T10:21:49;4.75;;;0.82;;
40867;SDS011;26586;50.708;22.412;2022-09-24T10:24:25;1.85;;;0.85;;
40867;SDS011;26586;50.708;22.412;2022-09-24T10:26:55;1.45;;;0.73;;
40867;SDS011;26586;50.708;22.412;2022-09-24T10:29:31;2.10;;;0.77;;
40867;SDS011;26586;50.708;22.412;2022-09-24T10:32:23;2.35;;;0.70;;
40867;SDS011;26586;50.708;22.412;2022-09-24T10:37:27;1.27;;;0.70;;
40867;SDS011;26586;50.708;22.412;2022-09-24T10:40:07;3.65;;;1.13;;
40867;SDS011;26586;50.708;22.412;2022-09-24T10:42:53;1.95;;;0.70;;
40867;SDS011;26586;50.708;22.412;2022-09-24T10:45:26;1.58;;;0.70;;
40867;SDS011;26586;50.708;22.412;2022-09-24T10:48:18;1376.03;;;146.52;;
40867;SDS011;26586;50.708;22.412;2022-09-24T10:53:42;2.40;;;1.13;;
40867;SDS011;26586;50.708;22.412;2022-09-24T10:56:43;2.95;;;0.98;;
40867;SDS011;26586;50.708;22.412;2022-09-24T11:02:30;0.93;;;0.60;;
40867;SDS011;26586;50.708;22.412;2022-09-24T11:05:11;1.23;;;0.70;;
40867;SDS011;26586;50.708;22.412;2022-09-24T11:10:55;1.65;;;0.73;;
40867;SDS011;26586;50.708;22.412;2022-09-24T11:28:20;1.83;;;0.85;;
40867;SDS011;26586;50.708;22.412;2022-09-24T11:39:07;1.25;;;0.65;;
40867;SDS011;26586;50.708;22.412;2022-09-24T11:47:35;1.77;;;0.40;;
40867;SDS011;26586;50.708;22.412;2022-09-24T11:50:34;1.65;;;0.50;;
40867;SDS011;26586;50.708;22.412;2022-09-24T11:56:12;1.38;;;0.70;;
40867;SDS011;26586;50.708;22.412;2022-09-24T11:59:09;103.30;;;43.55;;
40867;SDS011;26586;50.708;22.412;2022-09-24T12:01:39;16.13;;;9.32;;
40867;SDS011;26586;50.708;22.412;2022-09-24T12:04:16;3.35;;;1.70;;
40867;SDS011;26586;50.708;22.412;2022-09-24T12:07:00;2.95;;;2.47;;
40867;SDS011;26586;50.708;22.412;2022-09-24T12:12:06;6.88;;;1.67;;
40867;SDS011;26586;50.708;22.412;2022-09-24T12:20:25;1.27;;;0.80;;
40867;SDS011;26586;50.708;22.412;2022-09-24T12:22:55;1.98;;;1.38;;
40867;SDS011;26586;50.708;22.412;2022-09-24T12:25:25;3.72;;;1.95;;
40867;SDS011;26586;50.708;22.412;2022-09-24T12:27:57;3.53;;;1.42;;
40867;SDS011;26586;50.708;22.412;2022-09-24T12:38:38;1.90;;;1.10;;
40867;SDS011;26586;50.708;22.412;2022-09-24T12:41:15;1.50;;;1.10;;
40867;SDS011;26586;50.708;22.412;2022-09-24T12:43:53;1.77;;;1.08;;
40867;SDS011;26586;50.708;22.412;2022-09-24T12:46:47;21.30;;;2.15;;
40867;SDS011;26586;50.708;22.412;2022-09-24T12:51:53;1.40;;;0.90;;
40867;SDS011;26586;50.708;22.412;2022-09-24T12:54:23;2.00;;;1.25;;
40867;SDS011;26586;50.708;22.412;2022-09-24T12:57:02;2.20;;;1.17;;
40867;SDS011;26586;50.708;22.412;2022-09-24T12:59:45;2.35;;;1.13;;
40867;SDS011;26586;50.708;22.412;2022-09-24T13:02:20;2.95;;;0.90;;
40867;SDS011;26586;50.708;22.412;2022-09-24T13:07:27;2.15;;;1.00;;
40867;SDS011;26586;50.708;22.412;2022-09-24T13:12:42;2.53;;;1.05;;
40867;SDS011;26586;50.708;22.412;2022-09-24T13:18:01;2.65;;;1.17;;
40867;SDS011;26586;50.708;22.412;2022-09-24T13:20:28;1.50;;;0.68;;
40867;SDS011;26586;50.708;22.412;2022-09-24T13:22:57;1.90;;;0.82;;
40867;SDS011;26586;50.708;22.412;2022-09-24T13:25:37;2.50;;;1.15;;
40867;SDS011;26586;50.708;22.412;2022-09-24T13:33:46;3.95;;;1.42;;
40867;SDS011;26586;50.708;22.412;2022-09-24T13:36:17;3.92;;;1.20;;
40867;SDS011;26586;50.708;22.412;2022-09-24T13:41:31;3.45;;;1.30;;
40867;SDS011;26586;50.708;22.412;2022-09-24T13:44:04;2.58;;;1.38;;
40867;SDS011;26586;50.708;22.412;2022-09-24T13:46:42;2.20;;;1.20;;
40867;SDS011;26586;50.708;22.412;2022-09-24T13:49:12;1.83;;;1.15;;
40867;SDS011;26586;50.708;22.412;2022-09-24T13:51:43;2.47;;;1.33;;
40867;SDS011;26586;50.708;22.412;2022-09-24T13:56:57;2.45;;;2.03;;
40867;SDS011;26586;50.708;22.412;2022-09-24T13:59:31;3.30;;;1.83;;
40867;SDS011;26586;50.708;22.412;2022-09-24T14:01:57;2.87;;;1.30;;
40867;SDS011;26586;50.708;22.412;2022-09-24T14:04:23;3.13;;;2.00;;
40867;SDS011;26586;50.708;22.412;2022-09-24T14:06:52;3.08;;;1.50;;
40867;SDS011;26586;50.708;22.412;2022-09-24T14:11:48;4.35;;;1.77;;
40867;SDS011;26586;50.708;22.412;2022-09-24T14:14:20;4.90;;;2.60;;
40867;SDS011;26586;50.708;22.412;2022-09-24T14:16:49;8.82;;;2.55;;
40867;SDS011;26586;50.708;22.412;2022-09-24T14:19:20;3.42;;;2.28;;
40867;SDS011;26586;50.708;22.412;2022-09-24T14:21:48;3.53;;;1.98;;
40867;SDS011;26586;50.708;22.412;2022-09-24T14:26:57;6.25;;;3.97;;
40867;SDS011;26586;50.708;22.412;2022-09-24T14:29:31;15.90;;;9.32;;
40867;SDS011;26586;50.708;22.412;2022-09-24T14:32:00;13.90;;;7.75;;
40867;SDS011;26586;50.708;22.412;2022-09-24T14:34:35;15.23;;;8.07;;
40867;SDS011;26586;50.708;22.412;2022-09-24T14:37:11;6.63;;;4.05;;
40867;SDS011;26586;50.708;22.412;2022-09-24T14:39:43;5.60;;;2.55;;
40867;SDS011;26586;50.708;22.412;2022-09-24T14:42:20;4.07;;;2.20;;
40867;SDS011;26586;50.708;22.412;2022-09-24T14:45:02;4.97;;;2.83;;
40867;SDS011;26586;50.708;22.412;2022-09-24T14:47:32;3.13;;;2.28;;
40867;SDS011;26586;50.708;22.412;2022-09-24T14:50:00;4.28;;;2.78;;
40867;SDS011;26586;50.708;22.412;2022-09-24T14:55:17;11.63;;;5.07;;
40867;SDS011;26586;50.708;22.412;2022-09-24T14:57:45;9.50;;;5.07;;
40867;SDS011;26586;50.708;22.412;2022-09-24T15:00:18;8.50;;;5.28;;
40867;SDS011;26586;50.708;22.412;2022-09-24T15:05:51;10.02;;;6.50;;
40867;SDS011;26586;50.708;22.412;2022-09-24T15:08:28;6.03;;;4.37;;
40867;SDS011;26586;50.708;22.412;2022-09-24T15:13:27;5.18;;;3.83;;
40867;SDS011;26586;50.708;22.412;2022-09-24T15:21:32;7.57;;;5.95;;
40867;SDS011;26586;50.708;22.412;2022-09-24T15:23:58;12.75;;;8.13;;
40867;SDS011;26586;50.708;22.412;2022-09-24T15:26:26;45.38;;;21.95;;
40867;SDS011;26586;50.708;22.412;2022-09-24T15:28:58;38.25;;;20.27;;
40867;SDS011;26586;50.708;22.412;2022-09-24T15:31:25;56.88;;;30.33;;
40867;SDS011;26586;50.708;22.412;2022-09-24T15:33:51;102.30;;;54.42;;
40867;SDS011;26586;50.708;22.412;2022-09-24T15:36:18;87.72;;;44.35;;
40867;SDS011;26586;50.708;22.412;2022-09-24T15:38:46;28.10;;;15.65;;
40867;SDS011;26586;50.708;22.412;2022-09-24T15:41:13;25.30;;;13.32;;
40867;SDS011;26586;50.708;22.412;2022-09-24T15:43:39;36.63;;;21.90;;
40867;SDS011;26586;50.708;22.412;2022-09-24T15:46:05;61.08;;;30.77;;
40867;SDS011;26586;50.708;22.412;2022-09-24T15:48:31;47.03;;;23.85;;
40867;SDS011;26586;50.708;22.412;2022-09-24T15:50:58;10.75;;;7.20;;
40867;SDS011;26586;50.708;22.412;2022-09-24T15:53:27;24.73;;;10.85;;
40867;SDS011;26586;50.708;22.412;2022-09-24T15:55:55;39.78;;;18.52;;
40867;SDS011;26586;50.708;22.412;2022-09-24T15:58:25;80.35;;;32.45;;
40867;SDS011;26586;50.708;22.412;2022-09-24T16:00:52;69.28;;;30.13;;
40867;SDS011;26586;50.708;22.412;2022-09-24T16:03:22;62.08;;;28.27;;
40867;SDS011;26586;50.708;22.412;2022-09-24T16:05:51;59.28;;;32.15;;
40867;SDS011;26586;50.708;22.412;2022-09-24T16:08:17;52.75;;;26.85;;
40867;SDS011;26586;50.708;22.412;2022-09-24T16:10:44;45.87;;;27.33;;
40867;SDS011;26586;50.708;22.412;2022-09-24T16:13:12;38.28;;;21.65;;
40867;SDS011;26586;50.708;22.412;2022-09-24T16:15:39;41.80;;;22.25;;
40867;SDS011;26586;50.708;22.412;2022-09-24T16:18:06;51.50;;;30.63;;
40867;SDS011;26586;50.708;22.412;2022-09-24T16:20:40;53.83;;;32.40;;
40867;SDS011;26586;50.708;22.412;2022-09-24T16:23:10;46.78;;;26.65;;
40867;SDS011;26586;50.708;22.412;2022-09-24T16:25:42;42.20;;;24.67;;
40867;SDS011;26586;50.708;22.412;2022-09-24T16:28:22;36.72;;;22.23;;
40867;SDS011;26586;50.708;22.412;2022-09-24T16:30:49;40.80;;;23.92;;
40867;SDS011;26586;50.708;22.412;2022-09-24T16:33:15;37.38;;;22.30;;
40867;SDS011;26586;50.708;22.412;2022-09-24T16:35:41;44.50;;;24.45;;
40867;SDS011;26586;50.708;22.412;2022-09-24T16:38:08;47.95;;;25.88;;
40867;SDS011;26586;50.708;22.412;2022-09-24T16:40:34;36.72;;;22.17;;
40867;SDS011;26586;50.708;22.412;2022-09-24T16:43:00;40.63;;;23.95;;
40867;SDS011;26586;50.708;22.412;2022-09-24T16:45:26;45.22;;;25.67;;
40867;SDS011;26586;50.708;22.412;2022-09-24T16:47:52;46.90;;;25.40;;
40867;SDS011;26586;50.708;22.412;2022-09-24T16:50:19;41.90;;;26.13;;
40867;SDS011;26586;50.708;22.412;2022-09-24T16:52:48;44.97;;;27.20;;
40867;SDS011;26586;50.708;22.412;2022-09-24T16:55:16;39.40;;;25.67;;
40867;SDS011;26586;50.708;22.412;2022-09-24T16:57:42;45.88;;;27.85;;
40867;SDS011;26586;50.708;22.412;2022-09-24T17:00:09;49.95;;;28.55;;
40867;SDS011;26586;50.708;22.412;2022-09-24T17:02:36;55.60;;;31.70;;
40867;SDS011;26586;50.708;22.412;2022-09-24T17:05:02;51.67;;;28.63;;
40867;SDS011;26586;50.708;22.412;2022-09-24T17:07:29;52.60;;;28.08;;
40867;SDS011;26586;50.708;22.412;2022-09-24T17:12:39;62.63;;;35.08;;
40867;SDS011;26586;50.708;22.412;2022-09-24T17:15:11;80.18;;;41.75;;
40867;SDS011;26586;50.708;22.412;2022-09-24T17:17:39;152.88;;;78.38;;
40867;SDS011;26586;50.708;22.412;2022-09-24T17:20:06;148.27;;;81.47;;
40867;SDS011;26586;50.708;22.412;2022-09-24T17:22:34;163.98;;;89.30;;
40867;SDS011;26586;50.708;22.412;2022-09-24T17:25:01;143.02;;;81.45;;
40867;SDS011;26586;50.708;22.412;2022-09-24T17:27:30;136.25;;;79.05;;
40867;SDS011;26586;50.708;22.412;2022-09-24T17:29:58;132.18;;;76.60;;
40867;SDS011;26586;50.708;22.412;2022-09-24T17:32:24;138.57;;;77.82;;
40867;SDS011;26586;50.708;22.412;2022-09-24T17:34:50;141.85;;;78.18;;
40867;SDS011;26586;50.708;22.412;2022-09-24T17:37:16;139.98;;;86.93;;